Time;durP1;ratioP1;P1;durP2;ratioP2;P2;SDS_P1;SDS_P2;PMS_P1;PMS_P2;Temp;Humidity;BMP_temperature;BMP_pressure;BME280_temperature;BME280_humidity;BME280_pressure;Samples;Min_cycle;Max_cycle;Signal;HPM_P1;HPM_P2
2022/08/27 00:01:24;;;;;;;3.58;0.95;;;16.50;99.90;;;;;;5054910;28;20483;-56
2022/08/27 00:03:51;;;;;;;2.25;0.90;;;16.50;99.90;;;;;;5054944;28;20052;-57
2022/08/27 00:06:19;;;;;;;3.40;1.13;;;16.40;99.90;;;;;;5056342;28;20041;-58
2022/08/27 00:08:46;;;;;;;2.30;0.70;;;16.50;99.90;;;;;;5055625;28;20045;-58
2022/08/27 00:11:12;;;;;;;2.03;0.95;;;16.40;99.90;;;;;;5055308;28;20057;-59
2022/08/27 00:13:38;;;;;;;5.30;1.00;;;16.30;99.90;;;;;;5056356;28;20048;-58
2022/08/27 00:16:07;;;;;;;3.28;1.20;;;16.30;99.90;;;;;;5054603;28;20161;-58
2022/08/27 00:18:34;;;;;;;3.97;1.25;;;16.30;99.90;;;;;;5056015;28;20049;-58
2022/08/27 00:21:00;;;;;;;2.65;1.13;;;16.30;99.90;;;;;;5057245;28;20435;-55
2022/08/27 00:23:26;;;;;;;4.47;0.95;;;16.30;99.90;;;;;;5060908;28;20045;-58
2022/08/27 00:25:52;;;;;;;3.85;1.17;;;16.30;99.90;;;;;;5060669;28;20371;-56
2022/08/27 00:28:17;;;;;;;4.30;1.02;;;16.30;99.90;;;;;;5059834;28;20079;-55
2022/08/27 00:30:43;;;;;;;5.05;0.73;;;16.30;99.90;;;;;;5058389;28;20478;-55
2022/08/27 00:33:09;;;;;;;1.75;1.27;;;16.30;99.90;;;;;;5058071;28;20080;-55
2022/08/27 00:35:36;;;;;;;2.67;0.73;;;16.30;99.90;;;;;;5063330;28;20052;-55
2022/08/27 00:38:03;;;;;;;5.72;1.63;;;16.30;99.90;;;;;;5050456;28;20045;-55
2022/08/27 00:40:29;;;;;;;3.55;1.00;;;16.30;99.90;;;;;;5049475;28;20127;-55
2022/08/27 00:42:54;;;;;;;4.55;1.25;;;16.00;99.90;;;;;;5050429;28;20046;-54
2022/08/27 00:45:21;;;;;;;4.57;1.60;;;16.30;99.90;;;;;;5049148;28;20390;-55
2022/08/27 00:47:53;;;;;;;5.13;1.98;;;16.30;99.90;;;;;;5048802;28;20053;-54
2022/08/27 00:50:37;;;;;;;2.15;1.00;;;16.30;99.90;;;;;;5055421;28;20040;-55
2022/08/27 00:53:10;;;;;;;4.38;0.95;;;16.40;99.90;;;;;;5058265;28;20457;-55
2022/08/27 00:55:41;;;;;;;1.98;1.02;;;16.40;99.90;;;;;;5059758;28;20076;-54
2022/08/27 00:58:28;;;;;;;4.75;0.98;;;16.40;99.90;;;;;;5058844;28;20045;-56
2022/08/27 01:00:55;;;;;;;4.55;1.27;;;16.40;99.90;;;;;;5059260;28;20049;-54
2022/08/27 01:03:21;;;;;;;1.98;0.80;;;16.50;99.90;;;;;;5056603;28;20090;-55
2022/08/27 01:05:49;;;;;;;4.40;1.27;;;16.50;99.90;;;;;;5058232;28;20040;-55
2022/08/27 01:08:21;;;;;;;3.65;1.65;;;16.50;99.90;;;;;;5057773;28;20053;-55
2022/08/27 01:10:48;;;;;;;2.58;1.00;;;16.40;99.90;;;;;;5060227;28;20045;-55
2022/08/27 01:13:19;;;;;;;3.28;1.15;;;16.40;99.90;;;;;;5057038;28;20084;-54
2022/08/27 01:15:45;;;;;;;4.43;1.63;;;16.40;99.90;;;;;;5058810;28;20398;-55
2022/08/27 01:18:12;;;;;;;3.53;1.08;;;16.30;99.90;;;;;;5060374;28;20545;-54
2022/08/27 01:20:53;;;;;;;4.82;1.45;;;16.30;99.90;;;;;;5057285;28;20061;-54
2022/08/27 01:23:33;;;;;;;5.00;1.52;;;16.30;99.90;;;;;;5058240;28;20053;-55
2022/08/27 01:26:01;;;;;;;2.83;0.98;;;16.20;99.90;;;;;;5057409;28;20080;-55
2022/08/27 01:28:28;;;;;;;3.75;1.15;;;16.20;99.90;;;;;;5057835;28;20057;-55
2022/08/27 01:30:54;;;;;;;2.72;0.90;;;16.20;99.90;;;;;;5059087;28;20051;-54
2022/08/27 01:33:21;;;;;;;17.83;2.30;;;16.20;99.90;;;;;;5057417;28;20052;-57
2022/08/27 01:35:49;;;;;;;4.63;1.10;;;16.20;99.90;;;;;;5044848;28;20052;-57
2022/08/27 01:38:16;;;;;;;2.30;1.08;;;16.10;99.90;;;;;;5059174;28;20053;-55
2022/08/27 01:40:42;;;;;;;1.00;0.55;;;16.10;99.90;;;;;;5057125;28;20051;-54
2022/08/27 01:43:07;;;;;;;2.13;1.10;;;16.10;99.90;;;;;;5056319;28;20048;-55
2022/08/27 01:45:43;;;;;;;1.77;0.80;;;16.10;99.90;;;;;;5057207;28;20071;-55
2022/08/27 01:48:09;;;;;;;12.10;2.35;;;16.00;99.90;;;;;;5057988;28;20123;-56
2022/08/27 01:50:37;;;;;;;4.25;1.17;;;16.00;99.90;;;;;;5056270;28;20128;-55
2022/08/27 01:53:10;;;;;;;2.67;1.30;;;16.00;99.90;;;;;;5058522;28;20036;-55
2022/08/27 01:55:37;;;;;;;4.03;1.10;;;15.90;99.90;;;;;;5058596;28;20044;-55
2022/08/27 01:58:03;;;;;;;4.47;1.27;;;15.90;99.90;;;;;;5056732;28;20041;-54
2022/08/27 02:00:35;;;;;;;4.25;1.17;;;15.90;99.90;;;;;;5057535;28;20044;-55
2022/08/27 02:03:01;;;;;;;3.65;0.98;;;15.90;99.90;;;;;;5058525;28;20131;-55
2022/08/27 02:05:28;;;;;;;3.35;1.20;;;15.90;99.90;;;;;;5057540;28;20114;-55
2022/08/27 02:07:55;;;;;;;1.95;0.90;;;15.90;99.90;;;;;;5056005;28;20049;-56
2022/08/27 02:10:31;;;;;;;3.42;1.40;;;15.90;99.90;;;;;;5058152;28;20036;-54
2022/08/27 02:12:56;;;;;;;2.42;0.90;;;15.90;99.90;;;;;;5058399;28;20052;-55
2022/08/27 02:15:23;;;;;;;1.73;1.13;;;15.90;99.90;;;;;;5056384;28;20495;-55
2022/08/27 02:17:49;;;;;;;3.13;0.70;;;15.80;99.90;;;;;;5056494;28;20053;-55
2022/08/27 02:20:16;;;;;;;7.53;1.58;;;15.80;99.90;;;;;;5064397;28;20071;-55
2022/08/27 02:22:42;;;;;;;3.05;0.88;;;15.80;99.90;;;;;;5066377;28;20046;-55
2022/08/27 02:25:12;;;;;;;1.80;1.27;;;15.80;99.90;;;;;;5067453;28;20052;-55
2022/08/27 02:27:40;;;;;;;2.53;0.85;;;15.80;99.90;;;;;;5067178;28;20494;-54
2022/08/27 02:30:07;;;;;;;3.75;1.25;;;15.80;99.90;;;;;;5067041;28;20090;-55
2022/08/27 02:32:32;;;;;;;5.13;2.40;;;15.80;99.90;;;;;;5066672;28;20048;-54
2022/08/27 02:34:59;;;;;;;1.40;0.82;;;15.80;99.90;;;;;;5067111;28;20044;-55
2022/08/27 02:37:24;;;;;;;7.57;1.13;;;15.80;99.90;;;;;;5072957;28;20083;-55
2022/08/27 02:39:50;;;;;;;4.43;1.60;;;15.70;99.90;;;;;;5067035;28;20076;-55
2022/08/27 02:42:16;;;;;;;2.65;0.90;;;15.80;99.90;;;;;;5067275;28;20063;-56
2022/08/27 02:44:42;;;;;;;5.13;1.10;;;15.80;99.90;;;;;;5065868;28;20056;-55
2022/08/27 02:47:07;;;;;;;5.40;1.30;;;15.80;99.90;;;;;;5067192;28;20456;-55
2022/08/27 02:49:33;;;;;;;4.40;1.05;;;15.80;99.90;;;;;;5066844;28;20040;-55
2022/08/27 02:51:59;;;;;;;3.45;1.73;;;15.80;99.90;;;;;;5067305;28;20040;-55
2022/08/27 02:54:25;;;;;;;3.33;0.80;;;15.80;99.90;;;;;;5051772;28;20049;-55
2022/08/27 02:56:53;;;;;;;1.90;1.15;;;15.80;99.90;;;;;;5046661;28;20049;-55
2022/08/27 02:59:19;;;;;;;4.95;1.20;;;15.80;99.90;;;;;;5047042;28;20049;-55
2022/08/27 03:01:46;;;;;;;2.42;0.88;;;15.80;99.90;;;;;;5046544;28;20052;-54
2022/08/27 03:04:12;;;;;;;5.95;2.17;;;15.90;99.90;;;;;;5057984;28;20040;-55
2022/08/27 03:06:38;;;;;;;2.47;1.00;;;15.90;99.90;;;;;;5066608;28;20048;-55
2022/08/27 03:09:04;;;;;;;3.97;1.20;;;15.90;99.90;;;;;;5067027;28;20048;-55
2022/08/27 03:11:31;;;;;;;2.50;1.05;;;15.90;99.90;;;;;;5066672;28;20054;-54
2022/08/27 03:13:57;;;;;;;2.95;0.98;;;15.90;99.90;;;;;;5055357;28;20068;-55
2022/08/27 03:16:24;;;;;;;2.75;1.20;;;15.90;99.90;;;;;;5046787;28;20507;-55
2022/08/27 03:18:50;;;;;;;1.92;1.10;;;15.90;99.90;;;;;;5059019;28;20059;-54
2022/08/27 03:21:22;;;;;;;4.07;1.35;;;15.90;99.90;;;;;;5066187;28;20084;-55
2022/08/27 03:23:49;;;;;;;4.78;1.02;;;15.90;99.90;;;;;;5066247;28;20052;-55
2022/08/27 03:26:16;;;;;;;1.05;0.60;;;15.90;99.90;;;;;;5066649;28;20048;-54
2022/08/27 03:28:42;;;;;;;2.70;1.42;;;15.90;99.90;;;;;;5066504;28;20049;-55
2022/08/27 03:31:19;;;;;;;6.10;2.05;;;15.90;99.90;;;;;;5069168;28;20040;-54
2022/08/27 03:33:44;;;;;;;4.72;1.50;;;15.90;99.90;;;;;;5069206;28;20460;-55
2022/08/27 03:36:10;;;;;;;3.65;1.10;;;15.90;99.90;;;;;;5066684;28;20049;-54
2022/08/27 03:38:36;;;;;;;2.90;1.00;;;15.90;99.90;;;;;;5050492;28;20049;-55
2022/08/27 03:41:04;;;;;;;5.05;1.02;;;15.90;99.90;;;;;;5050570;28;20063;-58
2022/08/27 03:43:29;;;;;;;3.67;1.42;;;15.90;99.90;;;;;;5050100;28;20111;-58
2022/08/27 03:45:55;;;;;;;2.25;0.68;;;16.00;99.90;;;;;;5050797;28;20465;-58
2022/08/27 03:48:21;;;;;;;3.65;1.13;;;16.00;99.90;;;;;;5050253;28;20052;-56
2022/08/27 03:50:49;;;;;;;6.82;2.15;;;16.00;99.90;;;;;;5059298;28;20131;-55
2022/08/27 03:53:17;;;;;;;5.95;1.60;;;15.90;99.90;;;;;;5067970;28;20498;-55
2022/08/27 03:55:43;;;;;;;2.03;1.10;;;15.90;99.90;;;;;;5068932;28;20131;-55
2022/08/27 03:58:10;;;;;;;4.10;1.05;;;15.90;99.90;;;;;;5070299;28;20151;-56
2022/08/27 04:00:38;;;;;;;2.90;1.38;;;15.90;99.90;;;;;;5060193;28;20148;-58
2022/08/27 04:03:04;;;;;;;7.45;1.20;;;15.90;99.90;;;;;;5050276;28;20041;-56
2022/08/27 04:05:31;;;;;;;2.08;1.40;;;15.90;99.90;;;;;;5048508;28;20131;-58
2022/08/27 04:07:56;;;;;;;4.38;2.08;;;15.90;99.90;;;;;;5050191;28;20061;-57
2022/08/27 04:10:22;;;;;;;1.85;0.98;;;15.90;99.90;;;;;;5056646;28;20067;-58
2022/08/27 04:12:48;;;;;;;1.92;1.05;;;15.80;99.90;;;;;;5069480;28;20040;-55
2022/08/27 04:15:13;;;;;;;5.13;1.33;;;15.70;99.90;;;;;;5068707;28;20098;-57
2022/08/27 04:17:39;;;;;;;3.97;1.08;;;15.70;99.90;;;;;;5065946;28;20044;-58
2022/08/27 04:20:07;;;;;;;2.97;0.95;;;15.70;99.90;;;;;;5052204;28;20048;-56
2022/08/27 04:22:33;;;;;;;5.43;1.42;;;15.70;99.90;;;;;;5069460;28;20059;-55
2022/08/27 04:24:59;;;;;;;4.15;1.02;;;15.60;99.90;;;;;;5069363;28;20401;-56
2022/08/27 04:27:26;;;;;;;1.85;1.30;;;15.50;99.90;;;;;;5069519;28;20048;-56
2022/08/27 04:29:57;;;;;;;2.47;0.98;;;15.50;99.90;;;;;;5068591;28;20379;-57
2022/08/27 04:32:24;;;;;;;1.45;0.80;;;15.40;99.90;;;;;;5069493;28;20083;-56
2022/08/27 04:34:57;;;;;;;3.58;1.10;;;15.40;99.90;;;;;;5069219;28;20052;-58
2022/08/27 04:37:24;;;;;;;2.60;1.10;;;15.40;99.90;;;;;;5068185;28;20044;-58
2022/08/27 04:39:50;;;;;;;2.75;1.08;;;15.30;99.90;;;;;;5068085;28;20155;-57
2022/08/27 04:42:18;;;;;;;4.47;1.48;;;15.30;99.90;;;;;;5068464;28;20088;-58
2022/08/27 04:44:44;;;;;;;3.88;1.33;;;15.30;99.90;;;;;;5068823;28;20390;-55
2022/08/27 04:47:11;;;;;;;3.45;1.35;;;15.30;99.90;;;;;;5068622;28;20131;-55
2022/08/27 04:49:36;;;;;;;2.63;1.50;;;15.20;99.90;;;;;;5067329;28;20095;-55
2022/08/27 04:52:03;;;;;;;4.03;1.38;;;15.30;99.90;;;;;;5051040;28;20076;-55
2022/08/27 04:54:29;;;;;;;2.05;1.50;;;15.30;99.90;;;;;;5048896;28;20362;-55
2022/08/27 04:56:54;;;;;;;6.13;1.30;;;15.30;99.90;;;;;;5049212;28;20816;-55
2022/08/27 04:59:20;;;;;;;6.00;1.88;;;15.30;99.90;;;;;;5049143;28;20041;-55
2022/08/27 05:01:47;;;;;;;2.95;1.00;;;15.30;99.90;;;;;;5064665;28;20520;-60
2022/08/27 05:04:14;;;;;;;2.97;0.95;;;15.30;99.90;;;;;;5068473;28;20058;-57
2022/08/27 05:06:40;;;;;;;3.83;1.13;;;15.30;99.90;;;;;;5067496;28;20170;-55
2022/08/27 05:09:06;;;;;;;1.65;1.40;;;15.30;99.90;;;;;;5068962;28;20912;-54
2022/08/27 05:11:33;;;;;;;3.08;1.40;;;15.30;99.90;;;;;;5055107;28;20525;-55
2022/08/27 05:14:08;;;;;;;2.47;1.33;;;15.30;99.90;;;;;;5048803;28;20127;-55
2022/08/27 05:16:37;;;;;;;2.45;1.20;;;15.30;99.90;;;;;;5048512;28;20106;-54
2022/08/27 05:19:07;;;;;;;4.65;1.30;;;15.40;99.90;;;;;;5063283;28;20048;-55
2022/08/27 05:21:35;;;;;;;3.03;1.13;;;15.40;99.90;;;;;;5066270;28;20056;-55
2022/08/27 05:24:03;;;;;;;4.72;1.10;;;15.40;99.90;;;;;;5068413;28;20494;-55
2022/08/27 05:26:29;;;;;;;4.20;1.77;;;15.50;99.90;;;;;;5068251;28;20098;-55
2022/08/27 05:28:57;;;;;;;3.08;1.95;;;15.50;99.90;;;;;;5068344;28;20071;-55
2022/08/27 05:31:23;;;;;;;6.43;1.30;;;15.70;99.90;;;;;;5067446;28;20036;-54
2022/08/27 05:33:49;;;;;;;4.03;1.45;;;15.70;99.90;;;;;;5068332;28;20106;-55
2022/08/27 05:36:20;;;;;;;5.18;1.50;;;15.90;99.90;;;;;;5063709;28;20399;-55
2022/08/27 05:38:48;;;;;;;2.10;1.05;;;16.10;99.90;;;;;;5046823;28;20057;-56
2022/08/27 05:41:17;;;;;;;5.07;1.45;;;16.20;99.90;;;;;;5048291;28;20068;-55
2022/08/27 05:43:44;;;;;;;4.53;1.13;;;16.40;99.90;;;;;;5047210;28;20056;-55
2022/08/27 05:46:13;;;;;;;4.65;1.80;;;16.60;99.90;;;;;;5047802;28;20052;-55
2022/08/27 05:48:40;;;;;;;6.63;1.20;;;16.70;99.90;;;;;;5046751;28;20069;-55
2022/08/27 05:51:27;;;;;;;1.77;1.15;;;16.80;99.90;;;;;;5053503;28;20048;-55
2022/08/27 05:53:59;;;;;;;10.43;1.75;;;16.90;99.90;;;;;;5066746;28;20052;-54
2022/08/27 05:56:27;;;;;;;4.53;1.88;;;17.10;99.90;;;;;;5067984;28;20049;-55
2022/08/27 06:01:42;;;;;;;6.45;1.50;;;17.20;99.90;;;;;;5054630;28;20139;-54
2022/08/27 06:04:08;;;;;;;6.50;1.38;;;17.30;99.90;;;;;;5048138;28;20124;-55
2022/08/27 06:06:36;;;;;;;3.92;1.40;;;17.40;99.90;;;;;;5047320;28;20873;-55
2022/08/27 06:09:02;;;;;;;3.83;1.13;;;17.50;99.90;;;;;;5047707;28;20487;-55
2022/08/27 06:11:28;;;;;;;10.55;1.20;;;17.60;99.90;;;;;;5054630;28;20071;-55
2022/08/27 06:13:55;;;;;;;4.82;1.35;;;17.60;99.90;;;;;;5067518;28;20760;-55
2022/08/27 06:16:20;;;;;;;5.15;1.48;;;17.90;99.90;;;;;;5067208;28;20437;-55
2022/08/27 06:18:47;;;;;;;3.45;1.77;;;18.00;99.90;;;;;;5054780;28;20126;-55
2022/08/27 06:21:15;;;;;;;2.97;0.90;;;18.10;99.90;;;;;;5047354;28;20044;-55
2022/08/27 06:23:41;;;;;;;7.03;1.98;;;18.20;99.90;;;;;;5059069;28;20037;-55
2022/08/27 06:26:11;;;;;;;5.20;1.15;;;18.40;99.90;;;;;;5058316;28;20048;-55
2022/08/27 06:28:40;;;;;;;6.55;1.63;;;18.60;99.90;;;;;;5054878;28;20410;-54
2022/08/27 06:31:14;;;;;;;3.22;1.35;;;18.60;99.90;;;;;;5056717;28;20049;-55
2022/08/27 06:33:40;;;;;;;7.47;1.15;;;18.50;99.90;;;;;;5057987;28;20044;-55
2022/08/27 06:36:09;;;;;;;7.05;1.40;;;18.60;99.90;;;;;;5064148;28;20106;-56
2022/08/27 06:38:36;;;;;;;4.22;1.60;;;18.60;99.90;;;;;;5065466;28;20057;-55
2022/08/27 06:41:06;;;;;;;9.13;1.33;;;18.70;99.90;;;;;;5066270;28;20075;-55
2022/08/27 06:43:35;;;;;;;4.13;1.15;;;18.80;99.90;;;;;;5067092;28;20048;-54
2022/08/27 06:46:06;;;;;;;4.20;1.10;;;18.80;99.90;;;;;;5066262;28;20041;-55
2022/08/27 06:48:32;;;;;;;5.50;1.30;;;18.80;99.90;;;;;;5054094;28;20053;-56
2022/08/27 06:50:58;;;;;;;5.30;1.55;;;18.80;99.90;;;;;;5054214;28;20117;-56
2022/08/27 06:53:24;;;;;;;5.10;1.20;;;18.80;99.90;;;;;;5057348;28;20044;-56
2022/08/27 06:55:50;;;;;;;3.15;1.40;;;18.90;99.90;;;;;;5054715;28;20091;-56
2022/08/27 06:58:17;;;;;;;4.18;1.13;;;19.10;99.90;;;;;;5056912;28;20506;-56
2022/08/27 07:00:43;;;;;;;1.90;1.20;;;19.30;99.90;;;;;;5055148;28;20041;-55
2022/08/27 07:03:10;;;;;;;4.55;1.30;;;19.40;99.90;;;;;;5054841;28;20139;-57
2022/08/27 07:05:37;;;;;;;7.45;1.40;;;19.50;99.90;;;;;;5051740;28;20041;-55
2022/08/27 07:08:04;;;;;;;3.90;1.10;;;19.40;99.90;;;;;;5054920;28;20047;-56
2022/08/27 07:10:31;;;;;;;3.35;1.10;;;19.70;99.90;;;;;;5056219;28;20040;-57
2022/08/27 07:12:57;;;;;;;3.20;1.20;;;20.10;99.90;;;;;;5053866;28;20053;-58
2022/08/27 07:15:23;;;;;;;5.43;1.23;;;20.50;99.90;;;;;;5055745;28;20095;-57
2022/08/27 07:17:49;;;;;;;7.07;1.67;;;20.30;99.90;;;;;;5055766;28;20119;-56
2022/08/27 07:20:16;;;;;;;4.38;1.13;;;20.10;99.90;;;;;;5054350;28;20049;-55
2022/08/27 07:22:43;;;;;;;4.63;1.52;;;20.10;99.90;;;;;;5056194;28;20056;-55
2022/08/27 07:25:12;;;;;;;2.92;1.27;;;20.00;99.90;;;;;;5054181;28;20098;-56
2022/08/27 07:27:38;;;;;;;4.45;1.60;;;20.00;99.90;;;;;;5056617;28;20107;-56
2022/08/27 07:30:06;;;;;;;4.97;0.95;;;19.90;99.90;;;;;;5055193;28;20657;-57
2022/08/27 07:32:32;;;;;;;5.40;1.10;;;19.80;99.90;;;;;;5054662;28;20048;-55
2022/08/27 07:34:58;;;;;;;5.28;1.73;;;19.90;99.90;;;;;;5060075;28;20032;-55
2022/08/27 07:37:24;;;;;;;3.70;1.23;;;20.10;99.90;;;;;;5054166;28;20395;-55
2022/08/27 07:39:49;;;;;;;5.38;1.00;;;20.20;99.90;;;;;;5053921;28;20048;-57
2022/08/27 07:44:59;;;;;;;9.68;2.05;;;20.20;99.90;;;;;;5053288;28;20106;-56
2022/08/27 07:47:25;;;;;;;6.60;1.13;;;20.50;99.90;;;;;;5053649;28;20052;-55
2022/08/27 07:49:51;;;;;;;3.92;0.82;;;20.60;99.90;;;;;;5052697;28;20049;-56
2022/08/27 07:52:17;;;;;;;5.78;1.60;;;20.70;99.90;;;;;;5047460;28;20049;-55
2022/08/27 07:54:43;;;;;;;2.83;1.10;;;20.30;99.90;;;;;;5049889;28;20049;-55
2022/08/27 07:57:10;;;;;;;4.47;1.25;;;20.70;99.90;;;;;;5049791;28;20139;-55
2022/08/27 07:59:36;;;;;;;3.65;1.30;;;20.70;99.90;;;;;;5051178;28;20048;-55
2022/08/27 08:02:02;;;;;;;5.03;1.50;;;20.90;99.90;;;;;;5049945;28;20044;-56
2022/08/27 08:04:28;;;;;;;6.65;1.15;;;20.60;99.90;;;;;;5061746;28;20792;-55
2022/08/27 08:06:54;;;;;;;6.68;1.15;;;20.40;99.90;;;;;;5061034;28;20121;-55
2022/08/27 08:09:22;;;;;;;5.05;1.30;;;20.80;99.90;;;;;;5048277;28;20044;-55
2022/08/27 08:11:49;;;;;;;8.77;2.45;;;20.60;99.90;;;;;;5042685;28;20044;-55
2022/08/27 08:14:15;;;;;;;3.33;1.00;;;21.10;99.90;;;;;;5044769;28;20187;-55
2022/08/27 08:16:40;;;;;;;5.13;1.23;;;20.90;99.90;;;;;;5059473;28;20052;-55
2022/08/27 08:19:07;;;;;;;14.20;2.22;;;21.00;99.90;;;;;;5058957;28;20101;-55
2022/08/27 08:21:34;;;;;;;4.55;1.25;;;21.30;99.90;;;;;;5054269;28;20044;-56
2022/08/27 08:24:01;;;;;;;2.90;1.00;;;21.10;99.90;;;;;;5060307;28;20105;-55
2022/08/27 08:26:27;;;;;;;6.65;1.55;;;21.20;99.90;;;;;;5066013;28;20052;-56
2022/08/27 08:28:53;;;;;;;8.38;1.52;;;21.40;99.90;;;;;;5065602;28;20052;-56
2022/08/27 08:31:20;;;;;;;6.13;1.27;;;21.50;99.90;;;;;;5065297;28;20044;-55
2022/08/27 08:33:48;;;;;;;4.25;0.95;;;21.30;99.90;;;;;;5064809;28;20502;-55
2022/08/27 08:36:16;;;;;;;3.40;1.13;;;21.20;99.90;;;;;;5055741;28;20044;-56
2022/08/27 08:38:43;;;;;;;7.43;0.90;;;21.20;99.90;;;;;;5046362;28;20045;-56
2022/08/27 08:41:39;;;;;;;4.72;1.60;;;21.30;99.90;;;;;;5054188;28;20068;-57
2022/08/27 08:44:47;;;;;;;8.80;1.23;;;21.30;99.90;;;;;;5047750;28;20064;-56
2022/08/27 08:47:22;;;;;;;6.10;1.02;;;21.70;99.90;;;;;;5055099;28;20076;-55
2022/08/27 08:49:56;;;;;;;4.22;1.33;;;21.60;99.90;;;;;;5055688;28;20040;-55
2022/08/27 08:52:35;;;;;;;4.68;1.65;;;22.00;99.90;;;;;;5050184;28;20072;-55
2022/08/27 08:55:29;;;;;;;3.13;0.95;;;21.90;99.90;;;;;;5053134;28;20605;-55
2022/08/27 08:58:13;;;;;;;4.30;1.30;;;22.00;99.90;;;;;;5055506;28;20048;-55
2022/08/27 09:00:42;;;;;;;7.68;1.48;;;21.80;99.90;;;;;;5054829;28;20701;-57
2022/08/27 09:03:11;;;;;;;6.55;1.00;;;21.80;99.90;;;;;;5056324;28;20588;-55
2022/08/27 09:05:43;;;;;;;4.57;1.88;;;21.90;99.90;;;;;;5054326;28;20056;-57
2022/08/27 09:08:36;;;;;;;5.50;1.70;;;21.60;99.90;;;;;;5055789;28;20052;-58
2022/08/27 09:11:22;;;;;;;5.45;1.30;;;21.80;99.90;;;;;;5059572;28;20056;-56
2022/08/27 09:13:56;;;;;;;5.53;1.20;;;21.80;99.90;;;;;;5058925;28;20060;-56
2022/08/27 09:16:22;;;;;;;5.90;2.05;;;22.20;99.90;;;;;;5060306;28;20178;-56
2022/08/27 09:18:48;;;;;;;2.10;0.85;;;22.00;99.90;;;;;;5052913;28;20040;-58
2022/08/27 09:21:17;;;;;;;7.75;1.63;;;22.30;99.90;;;;;;5056133;28;20479;-58
2022/08/27 09:24:09;;;;;;;3.10;1.23;;;22.70;99.90;;;;;;5056019;28;20106;-58
2022/08/27 09:26:39;;;;;;;3.92;1.58;;;22.40;99.90;;;;;;5051172;28;20155;-58
2022/08/27 09:29:20;;;;;;;3.53;1.00;;;22.70;99.90;;;;;;5053691;28;20079;-58
2022/08/27 09:31:53;;;;;;;4.80;1.05;;;22.50;99.90;;;;;;5057094;28;20044;-59
2022/08/27 09:34:19;;;;;;;6.20;0.87;;;22.30;99.90;;;;;;5057017;28;20048;-58
2022/08/27 09:36:54;;;;;;;7.68;1.98;;;22.30;99.90;;;;;;5059051;28;20043;-58
2022/08/27 09:39:34;;;;;;;7.35;1.63;;;22.50;99.90;;;;;;5072935;28;20714;-58
2022/08/27 09:42:02;;;;;;;2.95;0.82;;;23.00;99.90;;;;;;5061031;28;20402;-58
2022/08/27 09:44:28;;;;;;;2.33;1.02;;;23.00;99.90;;;;;;5056708;28;20045;-57
2022/08/27 09:46:58;;;;;;;1.48;0.85;;;23.30;99.90;;;;;;5043719;28;20066;-58
2022/08/27 09:49:25;;;;;;;6.10;1.67;;;23.50;99.90;;;;;;5044536;28;20119;-56
2022/08/27 09:51:52;;;;;;;3.30;1.13;;;22.80;99.90;;;;;;5045635;28;20638;-56
2022/08/27 09:54:31;;;;;;;6.93;1.17;;;22.80;99.90;;;;;;5063716;28;20052;-58
2022/08/27 09:56:57;;;;;;;4.18;1.08;;;23.70;99.90;;;;;;5061553;28;20081;-56
2022/08/27 09:59:34;;;;;;;6.45;1.60;;;23.70;99.90;;;;;;5057469;28;20036;-55
2022/08/27 10:02:14;;;;;;;3.47;1.00;;;23.90;99.90;;;;;;5057146;28;20546;-55
2022/08/27 10:04:57;;;;;;;6.22;1.73;;;23.60;99.90;;;;;;5048799;28;20413;-56
2022/08/27 10:07:55;;;;;;;3.15;0.80;;;23.80;99.90;;;;;;5061050;28;20036;-61
2022/08/27 10:10:39;;;;;;;2.70;0.93;;;23.50;99.90;;;;;;5045148;28;20451;-61
2022/08/27 10:13:07;;;;;;;1.88;1.23;;;23.30;99.90;;;;;;5044405;28;20706;-58
2022/08/27 10:15:39;;;;;;;4.20;1.67;;;23.40;99.90;;;;;;5044722;28;20056;-59
2022/08/27 10:18:10;;;;;;;2.63;1.15;;;23.60;99.90;;;;;;5045226;28;20080;-62
2022/08/27 10:20:45;;;;;;;2.72;0.77;;;23.00;99.90;;;;;;5063662;28;20618;-63
2022/08/27 10:23:27;;;;;;;6.35;1.17;;;24.10;99.90;;;;;;5063410;28;20102;-61
2022/08/27 10:26:03;;;;;;;2.83;1.33;;;25.30;99.90;;;;;;5051874;28;20041;-62
2022/08/27 10:28:52;;;;;;;5.80;1.10;;;26.10;99.20;;;;;;5053758;28;20125;-60
2022/08/27 10:31:31;;;;;;;2.75;0.85;;;26.40;98.20;;;;;;5047759;28;20135;-61
2022/08/27 10:34:23;;;;;;;4.20;1.40;;;26.30;98.40;;;;;;5047733;28;20055;-59
2022/08/27 10:37:23;;;;;;;5.00;0.93;;;25.60;98.00;;;;;;5046903;28;20056;-56
2022/08/27 10:39:57;;;;;;;4.68;1.10;;;26.50;97.30;;;;;;5047791;28;20044;-59
2022/08/27 10:42:25;;;;;;;4.05;1.10;;;26.90;98.50;;;;;;5057154;28;20048;-60
2022/08/27 10:45:00;;;;;;;3.45;0.82;;;27.00;97.30;;;;;;5047901;28;20059;-57
2022/08/27 10:47:44;;;;;;;4.03;1.05;;;25.70;95.80;;;;;;5048363;28;20052;-60
2022/08/27 10:50:35;;;;;;;3.75;1.27;;;25.60;96.60;;;;;;5050015;28;20044;-57
2022/08/27 10:53:21;;;;;;;8.55;1.48;;;24.40;97.20;;;;;;5050673;28;20754;-57
2022/08/27 10:56:03;;;;;;;7.13;1.35;;;23.40;99.90;;;;;;5045858;28;20080;-56
2022/08/27 10:58:43;;;;;;;7.15;1.48;;;22.80;99.90;;;;;;5049097;28;20060;-55
2022/08/27 11:01:32;;;;;;;4.70;1.17;;;22.60;99.90;;;;;;5047986;28;20503;-57
2022/08/27 11:04:06;;;;;;;2.83;0.77;;;22.80;99.90;;;;;;5049333;28;20037;-60
2022/08/27 11:06:54;;;;;;;10.43;1.50;;;23.00;99.90;;;;;;5047962;28;20060;-61
2022/08/27 11:09:25;;;;;;;5.05;1.52;;;22.50;99.90;;;;;;5046727;28;20568;-56
2022/08/27 11:11:57;;;;;;;4.43;1.08;;;22.90;99.90;;;;;;5048943;28;20161;-60
2022/08/27 11:14:45;;;;;;;3.05;1.13;;;22.60;99.90;;;;;;5047355;28;20060;-57
2022/08/27 11:17:25;;;;;;;5.38;1.27;;;23.30;99.90;;;;;;5049484;28;20049;-62
2022/08/27 11:20:08;;;;;;;4.00;1.20;;;23.80;99.90;;;;;;5056115;28;20487;-59
2022/08/27 11:22:49;;;;;;;1.23;0.80;;;23.90;99.90;;;;;;5053109;28;20056;-56
2022/08/27 11:25:21;;;;;;;4.63;1.98;;;23.30;99.90;;;;;;5053787;28;20822;-56
2022/08/27 11:27:50;;;;;;;3.20;1.10;;;23.10;99.90;;;;;;5053501;28;20446;-55
2022/08/27 11:30:30;;;;;;;1.42;1.33;;;23.10;99.90;;;;;;5043821;28;20052;-58
2022/08/27 11:33:07;;;;;;;2.08;1.05;;;23.30;99.90;;;;;;5062183;28;20044;-62
2022/08/27 11:35:38;;;;;;;4.90;1.30;;;23.30;99.90;;;;;;5062718;28;20048;-60
2022/08/27 11:38:07;;;;;;;6.43;0.65;;;23.70;98.70;;;;;;5044086;28;20084;-57
2022/08/27 11:40:58;;;;;;;3.15;1.10;;;23.00;99.40;;;;;;5043277;28;20064;-58
2022/08/27 11:43:28;;;;;;;4.68;0.75;;;25.00;98.50;;;;;;5043387;28;20068;-55
2022/08/27 11:46:03;;;;;;;2.45;0.50;;;24.30;98.00;;;;;;5044614;28;20037;-56
2022/08/27 11:48:30;;;;;;;3.70;0.70;;;23.70;97.30;;;;;;5045101;28;20446;-56
2022/08/27 11:50:56;;;;;;;4.32;1.02;;;27.30;96.50;;;;;;5043123;28;20115;-55
2022/08/27 11:53:28;;;;;;;4.65;1.35;;;30.00;95.30;;;;;;5056477;28;20494;-55
2022/08/27 11:55:54;;;;;;;2.00;0.73;;;29.20;92.10;;;;;;5054514;28;20048;-57
2022/08/27 11:58:20;;;;;;;4.97;1.30;;;27.80;94.00;;;;;;5062292;28;20048;-55
2022/08/27 12:00:47;;;;;;;3.22;1.20;;;27.10;95.00;;;;;;5064886;28;20044;-56
2022/08/27 12:03:45;;;;;;;3.45;0.98;;;26.00;96.60;;;;;;5064985;28;20059;-56
2022/08/27 12:06:24;;;;;;;3.90;0.85;;;25.80;97.10;;;;;;5051413;28;20072;-57
2022/08/27 12:08:51;;;;;;;8.40;1.30;;;25.80;96.60;;;;;;5046633;28;20048;-56
2022/08/27 12:11:27;;;;;;;2.45;0.98;;;26.20;97.00;;;;;;5047059;28;20645;-55
2022/08/27 12:14:12;;;;;;;3.33;1.25;;;25.90;96.60;;;;;;5048456;28;20060;-56
2022/08/27 12:16:54;;;;;;;4.13;1.27;;;30.30;95.40;;;;;;5064996;28;20868;-56
2022/08/27 12:19:39;;;;;;;4.50;1.20;;;28.50;93.70;;;;;;5065449;28;20044;-58
2022/08/27 12:22:16;;;;;;;2.00;0.82;;;30.80;94.20;;;;;;5054393;28;20592;-56
2022/08/27 12:24:56;;;;;;;5.85;0.82;;;32.00;92.10;;;;;;5053670;28;20834;-56
2022/08/27 12:27:27;;;;;;;4.80;0.95;;;31.90;91.30;;;;;;5053529;28;20128;-57
2022/08/27 12:29:56;;;;;;;3.88;1.17;;;28.40;92.30;;;;;;5044924;28;20629;-56
2022/08/27 12:32:44;;;;;;;5.30;1.05;;;29.10;92.80;;;;;;5053026;28;20117;-57
2022/08/27 12:35:18;;;;;;;1.98;0.80;;;31.00;92.00;;;;;;5064858;28;20758;-59
2022/08/27 12:37:47;;;;;;;2.65;1.00;;;28.10;92.40;;;;;;5049446;28;20052;-55
2022/08/27 12:40:40;;;;;;;4.75;0.88;;;27.50;93.50;;;;;;5045737;28;20087;-59
2022/08/27 12:43:07;;;;;;;3.97;0.80;;;26.30;93.60;;;;;;5046328;28;20044;-56
2022/08/27 12:45:43;;;;;;;3.65;0.88;;;27.10;94.40;;;;;;5048476;28;20045;-56
2022/08/27 12:48:09;;;;;;;3.95;1.08;;;27.60;93.70;;;;;;5049652;28;20822;-60
2022/08/27 12:50:35;;;;;;;4.28;0.90;;;28.40;93.70;;;;;;5061732;28;20040;-55
2022/08/27 12:53:14;;;;;;;1.10;0.50;;;28.00;93.20;;;;;;5045996;28;20394;-55
2022/08/27 12:56:17;;;;;;;2.35;0.95;;;26.30;93.10;;;;;;5048490;28;20600;-55
2022/08/27 12:58:58;;;;;;;0.90;0.63;;;24.90;94.10;;;;;;5060711;28;20048;-55
2022/08/27 13:01:46;;;;;;;3.67;0.95;;;25.90;94.10;;;;;;5059516;28;20041;-55
2022/08/27 13:04:26;;;;;;;1.42;0.95;;;25.80;94.30;;;;;;5055019;28;20044;-56
2022/08/27 13:06:51;;;;;;;2.65;0.85;;;26.20;94.70;;;;;;5065172;28;20052;-56
2022/08/27 13:09:26;;;;;;;3.72;0.52;;;25.50;94.50;;;;;;5065101;28;20398;-55